createdAt,value
2023-01-05T00:00:00.000Z,5.71
2023-01-05T00:15:00.000Z,6.34
2023-01-05T00:30:00.000Z,3.69
2023-01-05T00:45:00.000Z,3.12
2023-01-05T01:00:00.000Z,5.17
2023-01-05T01:15:00.000Z,4.47
2023-01-05T01:30:00.000Z,5
2023-01-05T01:45:00.000Z,6.76
2023-01-05T02:00:00.000Z,4.66
2023-01-05T02:15:00.000Z,4.76
2023-01-05T02:30:00.000Z,4.38
2023-01-05T02:45:00.000Z,4.38
2023-01-05T03:00:00.000Z,4.31
2023-01-05T03:15:00.000Z,4.51
2023-01-05T03:30:00.000Z,4.46
2023-01-05T03:45:00.000Z,4.31
2023-01-05T04:00:00.000Z,4.78
2023-01-05T04:15:00.000Z,4.93
2023-01-05T04:30:00.000Z,5.98
2023-01-05T04:45:00.000Z,5.07
2023-01-05T05:00:00.000Z,6.98
2023-01-05T05:15:00.000Z,3.56
2023-01-05T05:30:00.000Z,4.29
2023-01-05T05:45:00.000Z,3.25
2023-01-05T06:00:00.000Z,12.29
2023-01-05T06:15:00.000Z,13.08
2023-01-05T06:30:00.000Z,2.49
2023-01-05T06:45:00.000Z,2.48
2023-01-05T07:00:00.000Z,1.21
2023-01-05T07:15:00.000Z,1.25
2023-01-05T07:30:00.000Z,1.25
2023-01-05T07:45:00.000Z,1.45
2023-01-05T08:00:00.000Z,1.31
2023-01-05T08:15:00.000Z,1.11
2023-01-05T08:30:00.000Z,3.76
2023-01-05T08:45:00.000Z,1.2
2023-01-05T09:00:00.000Z,1.15
2023-01-05T09:15:00.000Z,1.15
2023-01-05T09:30:00.000Z,1.13
2023-01-05T09:45:00.000Z,1.25
2023-01-05T10:00:00.000Z,1.05
2023-01-05T10:15:00.000Z,1.26
2023-01-05T10:30:00.000Z,1.47
2023-01-05T10:45:00.000Z,1.95
2023-01-05T11:00:00.000Z,1.34
2023-01-05T11:15:00.000Z,1.16
2023-01-05T11:30:00.000Z,1.18
2023-01-05T11:45:00.000Z,1.64
2023-01-05T12:00:00.000Z,1.19
2023-01-05T12:30:00.000Z,2.38
2023-01-05T12:45:00.000Z,2.36
2023-01-05T13:00:00.000Z,2.26
2023-01-05T13:15:00.000Z,2.67
2023-01-05T13:30:00.000Z,1.52
2023-01-05T13:45:00.000Z,2.54
2023-01-05T14:00:00.000Z,3.56
2023-01-05T14:15:00.000Z,4.78
2023-01-05T14:30:00.000Z,3.39
2023-01-05T14:45:00.000Z,1.6
2023-01-05T15:00:00.000Z,4.66
2023-01-05T15:15:00.000Z,3.55
2023-01-05T15:30:00.000Z,13.41
2023-01-05T15:45:00.000Z,12.53
2023-01-05T16:00:00.000Z,8.49
2023-01-05T16:15:00.000Z,9.54
2023-01-05T16:30:00.000Z,5.53
2023-01-05T16:45:00.000Z,6.22
2023-01-05T17:00:00.000Z,4.4
2023-01-05T17:15:00.000Z,4.79
2023-01-05T17:30:00.000Z,5.34
2023-01-05T17:45:00.000Z,6.74
2023-01-05T18:00:00.000Z,6.22
2023-01-05T18:15:00.000Z,8.46
2023-01-05T18:30:00.000Z,9.45
2023-01-05T18:45:00.000Z,10.09
2023-01-05T19:00:00.000Z,10.42
2023-01-05T19:15:00.000Z,13.68
2023-01-05T19:30:00.000Z,11.57
2023-01-05T19:45:00.000Z,9.67
2023-01-05T20:00:00.000Z,9.24
2023-01-05T20:15:00.000Z,8.95
2023-01-05T20:30:00.000Z,8.6
2023-01-05T20:45:00.000Z,10.54
2023-01-05T21:00:00.000Z,10.41
2023-01-05T21:15:00.000Z,8.24
2023-01-05T21:30:00.000Z,7.87
2023-01-05T21:45:00.000Z,7.72
2023-01-05T22:00:00.000Z,9.11
2023-01-05T22:15:00.000Z,8.86
2023-01-05T22:30:00.000Z,10.78
2023-01-05T22:45:00.000Z,10.11
2023-01-05T23:00:00.000Z,12.19
2023-01-05T23:15:00.000Z,10.92
2023-01-05T23:30:00.000Z,12.92
2023-01-05T23:45:00.000Z,13
